Time;durP1;ratioP1;P1;durP2;ratioP2;P2;SDS_P1;SDS_P2;PMS_P1;PMS_P2;Temp;Humidity;BMP_temperature;BMP_pressure;BME280_temperature;BME280_humidity;BME280_pressure;Samples;Min_cycle;Max_cycle;Signal;HPM_P1;HPM_P2
2023/04/16 00:00:51;;;;;;;3.90;2.50;;;8.70;99.90;;;;;;5097483;28;20871;-59
2023/04/16 00:03:20;;;;;;;4.30;2.20;;;8.70;99.90;;;;;;5098173;28;20422;-60
2023/04/16 00:05:47;;;;;;;3.22;1.80;;;8.60;99.90;;;;;;5096137;28;20914;-60
2023/04/16 00:08:14;;;;;;;3.17;2.00;;;8.60;99.90;;;;;;5095868;28;20421;-58
2023/04/16 00:10:41;;;;;;;3.60;2.50;;;8.70;99.90;;;;;;5095582;28;20517;-60
2023/04/16 00:13:08;;;;;;;3.93;2.07;;;8.60;99.90;;;;;;5094625;28;20744;-58
2023/04/16 00:15:35;;;;;;;2.85;1.80;;;8.60;99.90;;;;;;5094968;28;20418;-59
2023/04/16 00:18:03;;;;;;;2.97;2.03;;;8.60;99.90;;;;;;5094709;28;20425;-59
2023/04/16 00:20:31;;;;;;;2.53;1.80;;;8.50;99.90;;;;;;5096440;28;20484;-59
2023/04/16 00:22:58;;;;;;;3.10;2.15;;;8.60;99.90;;;;;;5096332;28;20853;-58
2023/04/16 00:25:26;;;;;;;2.65;2.10;;;8.70;99.90;;;;;;5096178;28;20429;-58
2023/04/16 00:27:53;;;;;;;2.58;1.70;;;8.70;99.90;;;;;;5096505;28;20432;-59
2023/04/16 00:30:20;;;;;;;3.00;1.90;;;8.70;99.90;;;;;;5096936;28;20422;-58
2023/04/16 00:32:47;;;;;;;2.90;1.90;;;8.60;99.90;;;;;;5096891;28;20433;-58
2023/04/16 00:35:14;;;;;;;3.55;2.15;;;8.60;99.90;;;;;;5095900;28;20414;-58
2023/04/16 00:37:42;;;;;;;3.13;2.25;;;8.60;99.90;;;;;;5096882;28;20702;-58
2023/04/16 00:40:10;;;;;;;3.57;1.93;;;8.70;99.90;;;;;;5096499;28;20889;-58
2023/04/16 00:42:37;;;;;;;3.22;2.10;;;8.70;99.90;;;;;;5096525;28;20883;-58
2023/04/16 00:45:05;;;;;;;3.00;1.92;;;8.70;99.90;;;;;;5097122;28;20418;-58
2023/04/16 00:47:32;;;;;;;3.15;2.00;;;8.60;99.90;;;;;;5096857;28;20418;-58
2023/04/16 00:49:59;;;;;;;3.58;2.38;;;8.50;99.90;;;;;;5096661;28;20428;-58
2023/04/16 00:52:27;;;;;;;2.53;1.80;;;8.60;99.90;;;;;;5094891;28;20426;-58
2023/04/16 00:54:56;;;;;;;2.80;1.80;;;8.60;99.90;;;;;;5094707;28;20892;-58
2023/04/16 00:57:23;;;;;;;2.50;1.90;;;8.60;99.90;;;;;;5095332;28;20734;-58
2023/04/16 00:59:51;;;;;;;2.60;1.90;;;8.60;99.90;;;;;;5095985;28;20488;-58
2023/04/16 01:02:18;;;;;;;3.00;1.88;;;8.70;99.90;;;;;;5096122;28;20775;-59
2023/04/16 01:04:45;;;;;;;2.97;2.03;;;8.60;99.90;;;;;;5094327;28;20738;-59
2023/04/16 01:07:12;;;;;;;2.35;1.55;;;8.60;99.90;;;;;;5095601;28;20838;-58
2023/04/16 01:09:39;;;;;;;2.53;1.65;;;8.60;99.90;;;;;;5094041;28;20845;-58
2023/04/16 01:12:08;;;;;;;3.20;2.00;;;8.70;99.90;;;;;;5094601;28;20883;-58
2023/04/16 01:14:36;;;;;;;2.50;1.50;;;8.70;99.90;;;;;;5094488;28;20721;-58
2023/04/16 01:17:03;;;;;;;3.10;2.00;;;8.60;99.90;;;;;;5093830;28;20441;-58
2023/04/16 01:19:30;;;;;;;2.25;1.92;;;8.70;99.90;;;;;;5093121;28;20507;-58
2023/04/16 01:21:59;;;;;;;2.67;1.60;;;8.70;99.90;;;;;;5094657;28;20430;-58
2023/04/16 01:24:26;;;;;;;2.10;1.50;;;8.70;99.90;;;;;;5095053;28;20406;-58
2023/04/16 01:26:53;;;;;;;2.90;1.80;;;8.60;99.90;;;;;;5094450;28;20454;-58
2023/04/16 01:29:21;;;;;;;2.58;1.50;;;8.60;99.90;;;;;;5096214;28;20854;-58
2023/04/16 01:31:48;;;;;;;2.00;1.40;;;8.60;99.90;;;;;;5095759;28;20432;-58
2023/04/16 01:34:15;;;;;;;2.20;1.50;;;8.60;99.90;;;;;;5096439;28;20418;-58
2023/04/16 01:36:42;;;;;;;2.33;1.50;;;8.70;99.90;;;;;;5095936;28;20430;-57
2023/04/16 01:39:14;;;;;;;3.17;1.80;;;8.70;99.90;;;;;;5095293;28;20459;-58
2023/04/16 01:41:41;;;;;;;2.58;1.60;;;8.70;99.90;;;;;;5096020;28;20729;-58
2023/04/16 01:44:08;;;;;;;2.20;1.60;;;8.70;99.90;;;;;;5096233;28;20502;-58
2023/04/16 01:46:45;;;;;;;2.33;1.50;;;8.70;99.90;;;;;;5112860;27;20796;-59
2023/04/16 01:49:12;;;;;;;2.42;1.20;;;8.60;99.90;;;;;;5112102;28;20474;-58
2023/04/16 01:51:39;;;;;;;2.25;1.35;;;8.60;99.90;;;;;;5112217;28;20841;-59
2023/04/16 01:54:06;;;;;;;2.15;1.33;;;8.60;99.90;;;;;;5111685;28;20421;-59
2023/04/16 01:56:32;;;;;;;2.67;1.30;;;8.70;99.90;;;;;;5111674;28;20629;-59
2023/04/16 01:59:00;;;;;;;1.90;1.10;;;8.70;99.90;;;;;;5110236;28;20413;-58
2023/04/16 02:01:27;;;;;;;1.85;1.20;;;8.60;99.90;;;;;;5112410;28;20436;-58
2023/04/16 02:03:55;;;;;;;2.90;1.40;;;8.60;99.90;;;;;;5111236;28;20475;-59
2023/04/16 02:06:22;;;;;;;1.73;1.10;;;8.60;99.90;;;;;;5110248;28;20435;-58
2023/04/16 02:08:49;;;;;;;2.10;1.20;;;8.60;99.90;;;;;;5109925;28;20417;-58
2023/04/16 02:11:16;;;;;;;1.90;1.13;;;8.60;99.90;;;;;;5111962;28;20425;-59
2023/04/16 02:13:43;;;;;;;1.80;1.10;;;8.60;99.90;;;;;;5110691;28;20428;-59
2023/04/16 02:16:10;;;;;;;2.13;1.30;;;8.60;99.90;;;;;;5111756;28;20552;-59
2023/04/16 02:18:37;;;;;;;2.00;1.20;;;8.70;99.90;;;;;;5111891;28;20455;-59
2023/04/16 02:21:06;;;;;;;2.03;1.20;;;8.70;99.90;;;;;;5111197;28;20932;-58
2023/04/16 02:23:33;;;;;;;2.13;1.20;;;8.70;99.90;;;;;;5112087;28;20860;-59
2023/04/16 02:26:00;;;;;;;2.20;1.30;;;8.60;99.90;;;;;;5111890;28;20433;-58
2023/04/16 02:28:27;;;;;;;1.80;1.20;;;8.60;99.90;;;;;;5110726;28;20423;-59
2023/04/16 02:30:54;;;;;;;2.40;1.40;;;8.60;99.90;;;;;;5110495;28;20448;-60
2023/04/16 02:33:24;;;;;;;2.10;1.30;;;8.60;99.90;;;;;;5111780;28;20470;-60
2023/04/16 02:35:52;;;;;;;1.92;1.20;;;8.60;99.90;;;;;;5111465;28;20425;-59
2023/04/16 02:38:20;;;;;;;2.50;1.40;;;8.50;99.90;;;;;;5110518;28;20425;-58
2023/04/16 02:40:47;;;;;;;2.10;1.45;;;8.50;99.90;;;;;;5109539;28;20486;-58
2023/04/16 02:43:14;;;;;;;2.35;1.60;;;8.50;99.90;;;;;;5110048;28;20429;-58
2023/04/16 02:45:41;;;;;;;2.60;1.50;;;8.50;99.90;;;;;;5110032;28;20437;-59
2023/04/16 02:48:08;;;;;;;2.35;1.42;;;8.60;99.90;;;;;;5109917;28;20877;-58
2023/04/16 02:50:35;;;;;;;3.05;1.40;;;8.60;99.90;;;;;;5110429;28;20486;-59
2023/04/16 02:53:03;;;;;;;1.80;1.25;;;8.60;99.90;;;;;;5111025;28;20475;-59
2023/04/16 02:55:31;;;;;;;2.45;1.25;;;8.50;99.90;;;;;;5110616;28;20640;-59
2023/04/16 02:57:58;;;;;;;2.00;1.20;;;8.50;99.90;;;;;;5097577;28;20418;-59
2023/04/16 03:00:25;;;;;;;2.30;1.30;;;8.50;99.90;;;;;;5096603;28;20414;-58
2023/04/16 03:02:52;;;;;;;2.00;1.42;;;8.50;99.90;;;;;;5097638;28;20416;-58
2023/04/16 03:05:19;;;;;;;2.10;1.20;;;8.50;99.90;;;;;;5097980;28;20867;-59
2023/04/16 03:07:46;;;;;;;2.33;1.20;;;8.60;99.90;;;;;;5097690;28;20424;-58
2023/04/16 03:10:13;;;;;;;3.72;1.48;;;8.50;99.90;;;;;;5097866;28;20502;-60
2023/04/16 03:12:42;;;;;;;3.20;1.40;;;8.40;99.90;;;;;;5097587;28;20424;-59
2023/04/16 03:15:10;;;;;;;2.40;1.50;;;8.30;99.90;;;;;;5096983;28;20448;-61
2023/04/16 03:17:36;;;;;;;3.00;1.50;;;8.40;99.90;;;;;;5096075;28;20915;-60
2023/04/16 03:20:04;;;;;;;3.90;1.63;;;8.40;99.90;;;;;;5096493;28;20909;-60
2023/04/16 03:22:31;;;;;;;2.30;1.70;;;8.40;99.90;;;;;;5096192;28;20422;-60
2023/04/16 03:24:58;;;;;;;3.50;1.70;;;8.40;99.90;;;;;;5095806;28;20861;-59
2023/04/16 03:27:25;;;;;;;3.30;1.80;;;8.40;99.90;;;;;;5095221;28;20444;-60
2023/04/16 03:29:54;;;;;;;2.50;1.50;;;8.40;99.90;;;;;;5096187;28;20429;-60
2023/04/16 03:32:21;;;;;;;2.72;1.50;;;8.40;99.90;;;;;;5096346;28;20422;-61
2023/04/16 03:34:48;;;;;;;3.20;1.80;;;8.40;99.90;;;;;;5096148;28;20483;-61
2023/04/16 03:37:15;;;;;;;2.65;1.70;;;8.40;99.90;;;;;;5095641;28;20870;-61
2023/04/16 03:39:42;;;;;;;4.22;1.98;;;8.40;99.90;;;;;;5095935;28;20729;-61
2023/04/16 03:42:09;;;;;;;2.92;2.05;;;8.60;99.90;;;;;;5096911;28;20489;-61
2023/04/16 03:44:36;;;;;;;3.80;1.65;;;8.50;99.90;;;;;;5095731;28;20487;-61
2023/04/16 03:47:04;;;;;;;3.50;1.80;;;8.40;99.90;;;;;;5097003;28;20433;-61
2023/04/16 03:49:31;;;;;;;4.15;1.90;;;8.40;99.90;;;;;;5095994;28;20473;-62
2023/04/16 03:51:58;;;;;;;3.53;1.80;;;8.40;99.90;;;;;;5095958;28;20777;-62
2023/04/16 03:54:25;;;;;;;2.42;1.45;;;8.40;99.90;;;;;;5094288;28;20480;-62
2023/04/16 03:56:52;;;;;;;3.57;1.80;;;8.40;99.90;;;;;;5094936;28;20496;-62
2023/04/16 03:59:19;;;;;;;3.23;1.50;;;8.60;99.90;;;;;;5094564;28;20476;-62
2023/04/16 04:01:46;;;;;;;2.83;1.70;;;8.40;99.90;;;;;;5094927;28;20829;-62
2023/04/16 04:04:15;;;;;;;2.95;1.75;;;8.40;99.90;;;;;;5094756;28;20710;-61
2023/04/16 04:06:42;;;;;;;3.65;2.17;;;8.40;99.90;;;;;;5095708;28;20438;-61
2023/04/16 04:09:09;;;;;;;3.13;1.60;;;8.40;99.90;;;;;;5095091;28;20421;-62
2023/04/16 04:11:36;;;;;;;4.00;2.38;;;8.50;99.90;;;;;;5096578;28;20426;-61
2023/04/16 04:14:04;;;;;;;3.60;2.10;;;8.30;99.90;;;;;;5096333;28;20422;-61
2023/04/16 04:16:31;;;;;;;3.00;1.60;;;8.30;99.90;;;;;;5096332;28;20434;-61
2023/04/16 04:18:59;;;;;;;3.75;1.50;;;8.40;99.90;;;;;;5096274;28;20421;-61
2023/04/16 04:21:27;;;;;;;3.60;1.70;;;8.30;99.90;;;;;;5096416;28;20430;-63
2023/04/16 04:23:54;;;;;;;2.30;1.40;;;8.30;99.90;;;;;;5096352;28;20899;-61
2023/04/16 04:26:21;;;;;;;2.30;1.35;;;8.40;99.90;;;;;;5096355;28;20491;-60
2023/04/16 04:28:48;;;;;;;3.15;1.48;;;8.40;99.90;;;;;;5095802;28;20421;-61
2023/04/16 04:31:15;;;;;;;2.67;1.45;;;8.40;99.90;;;;;;5095962;28;20498;-61
2023/04/16 04:33:42;;;;;;;2.95;1.40;;;8.40;99.90;;;;;;5095849;28;20429;-61
2023/04/16 04:36:09;;;;;;;2.50;1.40;;;8.40;99.90;;;;;;5095134;28;20413;-61
2023/04/16 04:38:38;;;;;;;3.00;1.20;;;8.40;99.90;;;;;;5094673;28;20429;-60
2023/04/16 04:41:05;;;;;;;2.70;1.48;;;8.40;99.90;;;;;;5094801;28;20483;-62
2023/04/16 04:43:32;;;;;;;2.70;1.40;;;8.40;99.90;;;;;;5095098;28;20418;-61
2023/04/16 04:45:59;;;;;;;3.30;1.70;;;8.30;99.90;;;;;;5095404;28;20852;-61
2023/04/16 04:48:26;;;;;;;2.90;1.50;;;8.40;99.90;;;;;;5095457;28;20475;-60
2023/04/16 04:50:53;;;;;;;4.20;1.60;;;8.40;99.90;;;;;;5095368;28;20425;-61
2023/04/16 04:53:20;;;;;;;3.58;1.40;;;8.40;99.90;;;;;;5095840;28;20418;-61
2023/04/16 04:55:49;;;;;;;3.00;1.40;;;8.50;99.90;;;;;;5095538;28;20479;-60
2023/04/16 04:58:15;;;;;;;3.00;1.60;;;8.50;99.90;;;;;;5095205;28;20425;-61
2023/04/16 05:00:42;;;;;;;3.20;1.80;;;8.40;99.90;;;;;;5095412;28;20422;-60
2023/04/16 05:03:11;;;;;;;4.85;2.00;;;8.30;99.90;;;;;;5094032;28;20475;-60
2023/04/16 05:05:38;;;;;;;3.30;1.67;;;8.30;99.90;;;;;;5095029;28;20987;-60
2023/04/16 05:08:05;;;;;;;3.35;1.60;;;8.30;99.90;;;;;;5095482;28;20427;-60
2023/04/16 05:10:32;;;;;;;2.63;1.60;;;8.40;99.90;;;;;;5095302;28;20841;-60
2023/04/16 05:13:00;;;;;;;2.92;1.70;;;8.30;99.90;;;;;;5094645;28;20421;-60
2023/04/16 05:15:27;;;;;;;3.83;1.40;;;8.40;99.90;;;;;;5094968;28;20426;-60
2023/04/16 05:17:55;;;;;;;2.93;1.40;;;8.30;99.90;;;;;;5095203;28;20417;-60
2023/04/16 05:20:23;;;;;;;3.42;1.70;;;8.30;99.90;;;;;;5094748;28;20453;-60
2023/04/16 05:22:50;;;;;;;2.78;1.40;;;8.30;99.90;;;;;;5095131;28;20458;-60
2023/04/16 05:25:18;;;;;;;3.05;1.70;;;8.40;99.90;;;;;;5094646;28;20430;-61
2023/04/16 05:27:45;;;;;;;3.00;1.60;;;8.30;99.90;;;;;;5095175;28;20429;-61
2023/04/16 05:30:13;;;;;;;4.65;2.53;;;8.30;99.90;;;;;;5094888;28;20432;-60
2023/04/16 05:32:40;;;;;;;5.93;2.53;;;8.40;99.90;;;;;;5094623;28;20414;-60
2023/04/16 05:35:09;;;;;;;6.70;3.47;;;8.40;99.90;;;;;;5095231;28;20528;-60
2023/04/16 05:37:36;;;;;;;5.47;3.07;;;8.40;99.90;;;;;;5094671;28;20418;-60
2023/04/16 05:40:04;;;;;;;7.40;4.10;;;8.40;99.90;;;;;;5094289;28;20475;-59
2023/04/16 05:42:31;;;;;;;8.57;4.57;;;8.40;99.90;;;;;;5093393;28;20449;-59
2023/04/16 05:44:58;;;;;;;10.73;5.10;;;8.30;99.90;;;;;;5093764;28;20487;-60
2023/04/16 05:47:26;;;;;;;9.00;5.20;;;8.20;99.90;;;;;;5093645;28;20434;-60
2023/04/16 05:49:53;;;;;;;11.63;5.78;;;8.20;99.90;;;;;;5093120;28;20898;-60
2023/04/16 05:52:20;;;;;;;9.38;5.53;;;8.30;99.90;;;;;;5091996;28;20776;-60
2023/04/16 05:54:47;;;;;;;10.77;5.50;;;8.40;99.90;;;;;;5091976;28;20733;-59
2023/04/16 05:57:14;;;;;;;11.82;8.23;;;8.30;99.90;;;;;;5090357;28;20418;-60
2023/04/16 05:59:41;;;;;;;11.82;7.43;;;8.20;99.90;;;;;;5092799;28;20430;-60
2023/04/16 06:02:08;;;;;;;14.10;8.13;;;8.10;99.90;;;;;;5092121;28;20417;-59
2023/04/16 06:04:36;;;;;;;12.75;7.53;;;8.20;99.90;;;;;;5092784;28;20795;-60
2023/04/16 06:07:03;;;;;;;13.32;7.45;;;8.20;99.90;;;;;;5091109;28;20487;-59
2023/04/16 06:09:31;;;;;;;11.93;7.60;;;8.30;99.90;;;;;;5093599;28;20481;-60
2023/04/16 06:11:57;;;;;;;11.75;7.30;;;8.30;99.90;;;;;;5094466;28;20833;-60
2023/04/16 06:14:25;;;;;;;11.90;7.00;;;8.30;99.90;;;;;;5094297;28;20837;-60
2023/04/16 06:16:52;;;;;;;11.90;6.60;;;8.30;99.90;;;;;;5093519;28;20418;-60
2023/04/16 06:19:19;;;;;;;9.50;5.65;;;8.30;99.90;;;;;;5092704;28;20418;-60
2023/04/16 06:21:47;;;;;;;11.32;6.68;;;8.50;99.90;;;;;;5092260;28;20833;-59
2023/04/16 06:24:14;;;;;;;11.77;6.90;;;8.50;99.90;;;;;;5092473;28;20530;-59
2023/04/16 06:26:41;;;;;;;10.30;6.60;;;8.40;99.90;;;;;;5093145;28;20443;-59
2023/04/16 06:29:08;;;;;;;10.85;6.55;;;8.30;99.90;;;;;;5092929;28;20422;-58
2023/04/16 06:31:35;;;;;;;12.82;6.85;;;8.20;99.90;;;;;;5094581;28;20433;-59
2023/04/16 06:34:02;;;;;;;9.55;6.15;;;8.30;99.90;;;;;;5098202;28;20422;-60
2023/04/16 06:36:30;;;;;;;9.18;5.78;;;8.40;99.90;;;;;;5097219;28;20421;-58
2023/04/16 06:38:58;;;;;;;10.20;6.30;;;8.40;99.90;;;;;;5094602;28;20475;-59
2023/04/16 06:41:25;;;;;;;11.15;6.57;;;8.50;99.90;;;;;;5097635;28;20840;-59
2023/04/16 06:43:53;;;;;;;12.30;6.93;;;8.60;99.90;;;;;;5095442;28;20578;-59
2023/04/16 06:46:20;;;;;;;13.07;7.77;;;8.60;99.90;;;;;;5096069;28;20437;-59
2023/04/16 06:48:47;;;;;;;11.67;7.07;;;8.50;99.90;;;;;;5095969;28;20418;-60
2023/04/16 06:51:14;;;;;;;11.67;7.00;;;8.50;99.90;;;;;;5093537;28;20457;-59
2023/04/16 06:53:41;;;;;;;13.00;7.85;;;8.50;99.90;;;;;;5094125;28;20422;-60
2023/04/16 06:56:10;;;;;;;14.02;8.80;;;8.50;99.90;;;;;;5095283;28;20429;-59
2023/04/16 06:58:37;;;;;;;13.20;8.10;;;8.40;99.90;;;;;;5094262;28;20441;-59
2023/04/16 07:01:04;;;;;;;12.40;6.93;;;8.50;99.90;;;;;;5092594;28;20433;-59
2023/04/16 07:03:31;;;;;;;12.00;7.28;;;8.60;99.90;;;;;;5093365;28;20455;-59
2023/04/16 07:05:58;;;;;;;10.85;7.05;;;8.70;99.90;;;;;;5096933;28;20421;-58
2023/04/16 07:08:25;;;;;;;10.85;7.03;;;8.70;99.90;;;;;;5097794;28;20417;-59
2023/04/16 07:10:53;;;;;;;9.90;6.25;;;8.70;99.90;;;;;;5096305;28;20833;-58
2023/04/16 07:13:21;;;;;;;11.98;7.22;;;8.70;99.90;;;;;;5097273;28;20479;-59
2023/04/16 07:15:48;;;;;;;11.45;7.60;;;8.70;99.90;;;;;;5097796;28;20512;-59
2023/04/16 07:18:15;;;;;;;9.65;6.00;;;8.70;99.90;;;;;;5097928;28;20797;-60
2023/04/16 07:20:42;;;;;;;12.00;7.40;;;8.80;99.90;;;;;;5097231;28;20520;-60
2023/04/16 07:23:09;;;;;;;11.35;5.55;;;8.80;99.90;;;;;;5097182;28;20465;-59
2023/04/16 07:25:36;;;;;;;9.95;6.60;;;8.80;99.90;;;;;;5096688;28;20426;-59
2023/04/16 07:28:03;;;;;;;11.47;7.40;;;8.80;99.90;;;;;;5096608;28;20897;-60
2023/04/16 07:30:33;;;;;;;8.15;5.60;;;8.80;99.90;;;;;;5095627;28;20437;-59
2023/04/16 07:33:01;;;;;;;11.35;6.70;;;8.80;99.90;;;;;;5095529;28;20418;-60
2023/04/16 07:35:28;;;;;;;9.40;5.45;;;8.80;99.90;;;;;;5096631;28;20457;-60
2023/04/16 07:37:55;;;;;;;9.57;6.45;;;8.90;99.90;;;;;;5096855;28;20467;-60
2023/04/16 07:40:23;;;;;;;10.35;5.93;;;8.90;99.90;;;;;;5096504;28;20440;-59
2023/04/16 07:42:50;;;;;;;10.70;5.90;;;9.00;99.90;;;;;;5096681;28;20418;-60
2023/04/16 07:45:17;;;;;;;8.80;5.40;;;9.00;99.90;;;;;;5094045;28;20799;-59
2023/04/16 07:47:46;;;;;;;9.40;5.95;;;9.10;99.90;;;;;;5096007;28;20429;-59
2023/04/16 07:50:13;;;;;;;8.75;5.28;;;9.10;99.90;;;;;;5095075;28;20541;-59
2023/04/16 07:52:41;;;;;;;9.37;5.67;;;9.20;99.90;;;;;;5093301;28;20417;-59
2023/04/16 07:55:09;;;;;;;9.43;5.25;;;9.20;99.90;;;;;;5095378;28;20821;-59
2023/04/16 07:57:36;;;;;;;7.20;4.70;;;9.20;99.90;;;;;;5093854;28;20410;-59
2023/04/16 08:00:04;;;;;;;8.88;4.90;;;9.20;99.90;;;;;;5092930;28;20430;-59
2023/04/16 08:02:31;;;;;;;7.67;4.90;;;9.20;99.90;;;;;;5094114;28;20811;-59
2023/04/16 08:05:00;;;;;;;10.05;5.88;;;9.10;99.90;;;;;;5095035;28;20430;-60
2023/04/16 08:07:28;;;;;;;8.82;5.07;;;9.20;99.90;;;;;;5095032;28;20446;-60
2023/04/16 08:09:55;;;;;;;8.63;4.97;;;9.30;99.90;;;;;;5095351;28;20422;-59
2023/04/16 08:12:22;;;;;;;8.68;5.38;;;9.20;99.90;;;;;;5095821;28;20437;-60
2023/04/16 08:14:49;;;;;;;9.13;4.68;;;9.20;99.90;;;;;;5094824;28;20418;-60
2023/04/16 08:17:16;;;;;;;7.18;5.22;;;9.10;99.90;;;;;;5096319;28;20421;-60
2023/04/16 08:19:44;;;;;;;8.30;4.78;;;9.00;99.90;;;;;;5095591;28;20429;-59
2023/04/16 08:22:13;;;;;;;8.60;5.75;;;9.00;99.90;;;;;;5096110;28;20414;-59
2023/04/16 08:24:40;;;;;;;7.00;4.60;;;9.00;99.90;;;;;;5095538;28;20433;-60
2023/04/16 08:27:07;;;;;;;7.18;4.03;;;9.10;99.90;;;;;;5095660;28;20422;-59
2023/04/16 08:29:35;;;;;;;9.32;4.90;;;9.10;99.90;;;;;;5094459;28;20503;-59
2023/04/16 08:32:02;;;;;;;6.15;4.22;;;9.00;99.90;;;;;;5094963;28;20421;-60
2023/04/16 08:34:29;;;;;;;7.35;4.45;;;9.00;99.90;;;;;;5094897;28;20422;-60
2023/04/16 08:36:56;;;;;;;7.60;4.35;;;9.00;99.90;;;;;;5095267;28;20912;-59
2023/04/16 08:39:24;;;;;;;8.57;4.88;;;8.90;99.90;;;;;;5094558;28;20852;-60
2023/04/16 08:41:55;;;;;;;7.57;4.75;;;9.00;99.90;;;;;;5094964;28;20849;-59
2023/04/16 08:44:26;;;;;;;7.93;5.10;;;9.00;99.90;;;;;;5095267;28;20418;-59
2023/04/16 08:46:56;;;;;;;9.52;6.10;;;9.10;99.90;;;;;;5095353;28;20429;-59
2023/04/16 08:49:27;;;;;;;8.30;5.60;;;9.20;99.90;;;;;;5095482;28;20504;-59
2023/04/16 08:51:55;;;;;;;6.50;4.18;;;9.20;99.90;;;;;;5095583;28;20738;-57
2023/04/16 08:54:32;;;;;;;7.38;5.10;;;9.10;99.90;;;;;;5094638;28;20474;-58
2023/04/16 08:57:00;;;;;;;7.70;4.78;;;9.10;99.90;;;;;;5094204;28;20834;-59
2023/04/16 08:59:28;;;;;;;7.72;5.38;;;9.10;99.90;;;;;;5094475;28;20787;-58
2023/04/16 09:01:58;;;;;;;7.68;5.00;;;9.00;99.90;;;;;;5094664;28;20557;-58
2023/04/16 09:04:28;;;;;;;7.28;4.70;;;9.00;99.90;;;;;;5094592;28;20424;-59
2023/04/16 09:06:56;;;;;;;7.85;5.15;;;9.00;99.90;;;;;;5095089;28;20944;-60
2023/04/16 09:09:23;;;;;;;7.25;4.47;;;9.00;99.90;;;;;;5094150;28;20426;-60
2023/04/16 09:11:53;;;;;;;6.97;4.43;;;9.20;99.90;;;;;;5092014;28;20475;-60
2023/04/16 09:14:20;;;;;;;8.00;5.17;;;9.20;99.90;;;;;;5094291;28;20841;-60
2023/04/16 09:16:48;;;;;;;7.00;4.25;;;9.40;99.90;;;;;;5094645;28;20526;-60
2023/04/16 09:19:15;;;;;;;8.43;4.30;;;9.60;99.90;;;;;;5094756;28;20803;-60
2023/04/16 09:21:45;;;;;;;6.90;3.50;;;9.50;99.90;;;;;;5094221;28;20733;-60
2023/04/16 09:24:13;;;;;;;5.88;3.83;;;9.60;99.90;;;;;;5094088;28;20718;-60
2023/04/16 09:26:42;;;;;;;7.75;4.00;;;9.70;99.90;;;;;;5093214;28;20429;-58
2023/04/16 09:29:10;;;;;;;5.32;3.90;;;9.70;99.90;;;;;;5094858;28;20907;-59
2023/04/16 09:31:37;;;;;;;8.43;4.63;;;9.80;99.90;;;;;;5093925;28;20729;-58
2023/04/16 09:34:06;;;;;;;5.88;3.88;;;9.80;99.90;;;;;;5095251;28;20834;-59
2023/04/16 09:36:34;;;;;;;5.13;3.40;;;9.80;99.90;;;;;;5094689;28;20486;-59
2023/04/16 09:39:02;;;;;;;5.90;3.58;;;9.80;99.90;;;;;;5093128;28;20418;-58
2023/04/16 09:41:31;;;;;;;6.67;3.97;;;9.90;99.90;;;;;;5094340;28;20733;-59
2023/04/16 09:43:59;;;;;;;6.40;4.40;;;9.70;99.90;;;;;;5094001;28;20430;-59
2023/04/16 09:46:33;;;;;;;6.93;4.07;;;9.70;99.90;;;;;;5093335;28;20434;-58
2023/04/16 09:49:08;;;;;;;7.03;4.60;;;9.60;99.90;;;;;;5093993;28;20440;-58
2023/04/16 09:51:37;;;;;;;5.90;3.88;;;9.70;99.90;;;;;;5089271;28;20418;-60
2023/04/16 09:54:05;;;;;;;6.95;3.90;;;9.80;99.90;;;;;;5088018;28;20420;-59
2023/04/16 09:56:32;;;;;;;7.57;4.57;;;9.80;99.90;;;;;;5093564;28;20482;-59
2023/04/16 09:59:00;;;;;;;7.47;4.17;;;9.60;99.90;;;;;;5093901;28;20414;-60
2023/04/16 10:01:27;;;;;;;5.90;3.70;;;9.70;99.90;;;;;;5094222;28;20438;-58
2023/04/16 10:03:56;;;;;;;5.88;3.95;;;9.60;99.90;;;;;;5093909;28;20418;-59
2023/04/16 10:06:26;;;;;;;6.85;4.40;;;9.60;99.90;;;;;;5092777;28;20487;-59
2023/04/16 10:08:55;;;;;;;7.00;4.45;;;9.60;99.90;;;;;;5096029;28;20433;-60
2023/04/16 10:11:23;;;;;;;6.80;4.10;;;9.50;99.90;;;;;;5095750;28;20865;-59
2023/04/16 10:13:50;;;;;;;7.55;4.72;;;9.40;99.90;;;;;;5096797;28;20869;-60
2023/04/16 10:16:18;;;;;;;7.30;3.70;;;9.50;99.90;;;;;;5095644;28;20429;-60
2023/04/16 10:18:46;;;;;;;6.75;4.10;;;9.70;99.90;;;;;;5097921;28;20844;-60
2023/04/16 10:21:15;;;;;;;7.63;3.70;;;9.80;99.90;;;;;;5094523;28;20429;-60
2023/04/16 10:23:43;;;;;;;7.50;4.00;;;9.80;99.90;;;;;;5085994;28;20885;-58
2023/04/16 10:26:10;;;;;;;7.32;4.15;;;9.90;99.90;;;;;;5077885;28;20492;-60
2023/04/16 10:28:37;;;;;;;7.25;4.03;;;10.00;99.90;;;;;;5095110;28;20488;-60
2023/04/16 10:31:07;;;;;;;6.60;3.97;;;10.00;99.90;;;;;;5096758;28;20645;-59
2023/04/16 10:33:35;;;;;;;6.05;3.65;;;10.00;99.90;;;;;;5096641;28;20425;-59
2023/04/16 10:36:09;;;;;;;6.07;4.50;;;10.00;99.90;;;;;;5096239;28;20521;-60
2023/04/16 10:38:40;;;;;;;6.93;4.15;;;10.00;99.90;;;;;;5096466;28;20460;-60
2023/04/16 10:41:08;;;;;;;6.10;3.60;;;10.00;99.90;;;;;;5095363;28;20909;-60
2023/04/16 10:43:40;;;;;;;7.35;3.95;;;10.00;99.90;;;;;;5095782;28;20726;-60
2023/04/16 10:46:21;;;;;;;5.32;3.30;;;10.10;99.90;;;;;;5094896;28;20503;-60
2023/04/16 10:48:50;;;;;;;6.28;3.40;;;10.00;99.90;;;;;;5093206;28;20478;-60
2023/04/16 10:51:26;;;;;;;5.65;3.92;;;10.00;99.90;;;;;;5094458;28;20426;-61
2023/04/16 10:53:57;;;;;;;6.13;3.50;;;10.00;99.90;;;;;;5095527;28;20422;-60
2023/04/16 10:56:25;;;;;;;6.07;3.20;;;10.00;99.90;;;;;;5095948;28;20520;-61
2023/04/16 10:58:54;;;;;;;6.63;3.60;;;9.90;99.90;;;;;;5095894;28;20417;-60
2023/04/16 11:01:30;;;;;;;5.70;3.20;;;9.90;99.90;;;;;;5094960;28;20428;-60
2023/04/16 11:03:59;;;;;;;4.65;2.80;;;10.00;99.90;;;;;;5095149;28;20429;-59
2023/04/16 11:06:28;;;;;;;5.60;3.50;;;10.00;99.90;;;;;;5092312;28;20568;-60
2023/04/16 11:08:56;;;;;;;4.65;2.72;;;10.00;99.90;;;;;;5093802;28;21003;-60
2023/04/16 11:11:23;;;;;;;5.10;3.00;;;10.00;99.90;;;;;;5095332;28;20429;-60
2023/04/16 11:13:56;;;;;;;4.13;2.50;;;10.10;99.90;;;;;;5095060;28;20851;-60
2023/04/16 11:16:26;;;;;;;5.75;2.75;;;10.10;99.90;;;;;;5095989;28;20426;-60
2023/04/16 11:18:53;;;;;;;5.50;2.60;;;10.20;99.90;;;;;;5095137;28;20413;-59
2023/04/16 11:21:20;;;;;;;5.38;2.40;;;10.20;99.90;;;;;;5095630;28;20784;-59
2023/04/16 11:23:48;;;;;;;4.03;2.33;;;10.20;99.90;;;;;;5094488;28;20422;-59
2023/04/16 11:26:26;;;;;;;3.40;2.05;;;10.10;99.90;;;;;;5095664;28;20426;-59
2023/04/16 11:28:54;;;;;;;3.70;1.90;;;10.00;99.90;;;;;;5095206;28;20722;-59
2023/04/16 11:31:22;;;;;;;3.97;1.83;;;9.90;99.90;;;;;;5094161;28;20491;-61
2023/04/16 11:33:49;;;;;;;3.40;1.90;;;10.00;99.90;;;;;;5093784;28;20505;-61
2023/04/16 11:36:16;;;;;;;2.97;2.00;;;10.10;99.90;;;;;;5095683;28;20429;-60
2023/04/16 11:38:43;;;;;;;3.40;1.80;;;10.20;99.90;;;;;;5092120;28;20417;-60
2023/04/16 11:41:10;;;;;;;2.90;1.70;;;10.20;99.90;;;;;;5089774;28;20452;-60
2023/04/16 11:43:39;;;;;;;2.33;1.60;;;10.20;99.90;;;;;;5094450;28;20495;-58
2023/04/16 11:46:07;;;;;;;1.83;1.20;;;10.10;99.90;;;;;;5093891;28;20873;-61
2023/04/16 11:48:47;;;;;;;1.83;1.10;;;10.00;99.90;;;;;;5095081;28;20525;-62
2023/04/16 11:51:15;;;;;;;1.65;1.17;;;10.00;99.90;;;;;;5095238;28;20425;-60
2023/04/16 11:53:52;;;;;;;1.90;1.10;;;10.00;99.90;;;;;;5094756;28;20456;-59
2023/04/16 11:56:27;;;;;;;2.33;1.10;;;10.00;99.90;;;;;;5090653;28;20436;-60
2023/04/16 11:59:08;;;;;;;1.70;1.10;;;10.10;99.90;;;;;;5087808;28;20456;-59
2023/04/16 12:01:36;;;;;;;2.45;1.10;;;10.20;99.90;;;;;;5080080;28;20428;-60
2023/04/16 12:04:04;;;;;;;2.40;1.10;;;10.10;99.90;;;;;;5079218;28;20802;-60
2023/04/16 12:06:32;;;;;;;2.42;1.00;;;10.20;99.90;;;;;;5070208;28;20778;-59
2023/04/16 12:08:59;;;;;;;1.55;0.95;;;10.20;99.90;;;;;;5089701;28;20438;-59
2023/04/16 12:11:40;;;;;;;1.80;0.90;;;10.20;99.90;;;;;;5080599;28;20780;-60
2023/04/16 12:14:12;;;;;;;1.88;0.90;;;10.00;99.90;;;;;;5085435;28;20643;-59
2023/04/16 12:16:39;;;;;;;1.50;0.90;;;9.90;99.90;;;;;;5073813;28;20505;-60
2023/04/16 12:19:06;;;;;;;1.70;0.90;;;9.90;99.90;;;;;;5072747;28;20415;-62
2023/04/16 12:21:38;;;;;;;1.57;0.90;;;9.80;99.90;;;;;;5072798;28;20947;-61
2023/04/16 12:24:06;;;;;;;1.67;0.90;;;9.90;99.90;;;;;;5071465;28;20727;-60
2023/04/16 12:26:41;;;;;;;1.60;0.90;;;10.00;99.90;;;;;;5071989;28;20427;-62
2023/04/16 12:29:20;;;;;;;1.30;0.80;;;10.00;99.90;;;;;;5071706;28;20523;-60
2023/04/16 12:31:48;;;;;;;2.30;0.80;;;9.90;99.90;;;;;;5074278;28;20477;-61
2023/04/16 12:34:16;;;;;;;1.20;0.70;;;9.90;99.90;;;;;;5072014;28;20713;-61
2023/04/16 12:36:43;;;;;;;1.60;0.90;;;9.90;99.90;;;;;;5073571;28;20415;-60
2023/04/16 12:39:10;;;;;;;1.10;0.70;;;10.00;99.90;;;;;;5073561;28;20419;-62
2023/04/16 12:41:39;;;;;;;1.20;0.73;;;10.10;99.90;;;;;;5072876;28;20424;-61
2023/04/16 12:44:10;;;;;;;1.33;0.83;;;10.10;99.90;;;;;;5072286;28;20419;-61
2023/04/16 12:46:39;;;;;;;1.50;0.70;;;10.00;99.90;;;;;;5072931;28;20416;-60
2023/04/16 12:49:07;;;;;;;1.30;0.90;;;10.00;99.90;;;;;;5071852;28;20527;-61
2023/04/16 12:51:35;;;;;;;1.60;0.90;;;9.90;99.90;;;;;;5071702;28;20510;-61
2023/04/16 12:54:03;;;;;;;1.38;0.80;;;9.90;99.90;;;;;;5071169;28;20419;-61
2023/04/16 12:56:31;;;;;;;1.17;0.80;;;10.00;99.90;;;;;;5073888;28;20502;-61
2023/04/16 12:58:58;;;;;;;1.58;0.70;;;9.90;99.90;;;;;;5073492;28;20415;-60